Time;durP1;ratioP1;P1;durP2;ratioP2;P2;SDS_P1;SDS_P2;PMS_P1;PMS_P2;Temp;Humidity;BMP_temperature;BMP_pressure;BME280_temperature;BME280_humidity;BME280_pressure;Samples;Min_cycle;Max_cycle;Signal;HPM_P1;HPM_P2
2022/08/30 00:02:17;;;;;;;4.63;3.10;;;;;;;;;;5015488;28;20751;-80
2022/08/30 00:04:43;;;;;;;5.78;3.20;;;;;;;;;;5009512;28;20799;-80
2022/08/30 00:07:10;;;;;;;5.93;3.35;;;;;;;;;;5014885;28;20056;-80
2022/08/30 00:09:36;;;;;;;5.43;3.50;;;;;;;;;;4999046;28;20438;-80
2022/08/30 00:12:03;;;;;;;7.13;3.58;;;;;;;;;;5008438;28;20473;-80
2022/08/30 00:14:29;;;;;;;4.53;2.80;;;;;;;;;;5010099;28;20045;-80
2022/08/30 00:16:55;;;;;;;6.70;2.72;;;;;;;;;;5033132;28;20088;-80
2022/08/30 00:19:21;;;;;;;5.57;3.53;;;;;;;;;;4986395;28;20471;-80
2022/08/30 00:21:47;;;;;;;5.45;2.88;;;;;;;;;;5009994;28;20475;-80
2022/08/30 00:24:14;;;;;;;4.45;2.95;;;;;;;;;;4969853;28;20053;-80
2022/08/30 00:26:43;;;;;;;5.97;3.17;;;;;;;;;;5017160;28;20377;-80
2022/08/30 00:29:09;;;;;;;4.95;2.80;;;;;;;;;;5035043;28;20041;-80
2022/08/30 00:31:35;;;;;;;8.77;3.83;;;;;;;;;;4983567;28;20057;-80
2022/08/30 00:34:01;;;;;;;5.60;3.60;;;;;;;;;;5009070;28;20441;-80
2022/08/30 00:36:27;;;;;;;4.63;3.65;;;;;;;;;;5050567;28;20500;-80
2022/08/30 00:38:53;;;;;;;7.25;3.30;;;;;;;;;;5015701;28;20071;-80
2022/08/30 00:41:20;;;;;;;6.20;3.42;;;;;;;;;;5000261;28;20293;-80
2022/08/30 00:43:46;;;;;;;6.00;3.42;;;;;;;;;;4968154;28;20478;-80
2022/08/30 00:46:13;;;;;;;4.03;3.13;;;;;;;;;;5003899;28;20114;-87
2022/08/30 00:48:41;;;;;;;4.63;3.38;;;;;;;;;;5021555;28;20084;-88
2022/08/30 00:51:08;;;;;;;5.03;3.25;;;;;;;;;;5011313;28;20229;-88
2022/08/30 00:53:37;;;;;;;5.03;3.15;;;;;;;;;;5018805;28;20454;-88
2022/08/30 00:56:03;;;;;;;4.72;2.70;;;;;;;;;;5025253;28;20046;-88
2022/08/30 00:58:31;;;;;;;5.38;2.88;;;;;;;;;;5043991;28;20073;-87
2022/08/30 01:00:59;;;;;;;6.15;2.55;;;;;;;;;;5026583;28;20569;-88
2022/08/30 01:03:26;;;;;;;5.25;3.03;;;;;;;;;;5014266;28;20086;-87
2022/08/30 01:05:52;;;;;;;5.35;2.83;;;;;;;;;;5022885;28;20092;-88
2022/08/30 01:08:21;;;;;;;5.22;2.80;;;;;;;;;;5020533;28;20036;-88
2022/08/30 01:10:48;;;;;;;4.85;2.50;;;;;;;;;;5043682;28;20036;-87
2022/08/30 01:13:14;;;;;;;7.03;2.42;;;;;;;;;;5030103;28;20581;-87
2022/08/30 01:15:41;;;;;;;5.53;3.10;;;;;;;;;;5021507;28;20052;-87
2022/08/30 01:18:10;;;;;;;5.38;2.92;;;;;;;;;;5038220;28;20049;-87
2022/08/30 01:20:38;;;;;;;4.90;2.20;;;;;;;;;;5025496;28;20056;-87
2022/08/30 01:23:11;;;;;;;3.88;2.08;;;;;;;;;;5028035;28;20074;-87
2022/08/30 01:25:37;;;;;;;4.25;2.70;;;;;;;;;;5017638;28;20450;-87
2022/08/30 01:28:08;;;;;;;3.55;2.28;;;;;;;;;;5013045;28;20069;-88
2022/08/30 01:30:37;;;;;;;4.45;3.10;;;;;;;;;;5044877;28;20041;-88
2022/08/30 01:33:05;;;;;;;5.00;2.70;;;;;;;;;;5029522;28;20176;-87
2022/08/30 01:35:47;;;;;;;5.22;3.10;;;;;;;;;;5011208;28;20220;-87
2022/08/30 01:38:14;;;;;;;4.28;2.80;;;;;;;;;;5024436;28;20347;-87
2022/08/30 01:40:40;;;;;;;3.88;2.75;;;;;;;;;;5022939;28;20064;-87
2022/08/30 01:43:06;;;;;;;5.13;3.08;;;;;;;;;;5020543;28;20118;-87
2022/08/30 01:45:33;;;;;;;4.97;2.97;;;;;;;;;;5024776;28;20056;-87
2022/08/30 01:47:59;;;;;;;4.90;2.85;;;;;;;;;;5028446;28;20132;-87
2022/08/30 01:50:25;;;;;;;5.30;3.42;;;;;;;;;;5042632;28;20100;-87
2022/08/30 01:52:51;;;;;;;6.47;3.30;;;;;;;;;;5013029;28;20047;-86
2022/08/30 01:55:18;;;;;;;8.63;3.60;;;;;;;;;;5035507;28;20037;-87
2022/08/30 01:57:45;;;;;;;4.93;2.60;;;;;;;;;;5013330;28;20120;-87
2022/08/30 02:00:12;;;;;;;6.30;3.20;;;;;;;;;;5013264;28;20429;-87
2022/08/30 02:02:38;;;;;;;3.80;2.67;;;;;;;;;;5046126;28;20045;-87
2022/08/30 02:05:05;;;;;;;4.22;2.80;;;;;;;;;;5027562;28;20106;-87
2022/08/30 02:07:31;;;;;;;3.55;2.40;;;;;;;;;;5022173;28;20032;-87
2022/08/30 02:09:57;;;;;;;6.28;2.70;;;;;;;;;;5014441;28;20063;-87
2022/08/30 02:12:24;;;;;;;5.45;2.63;;;;;;;;;;5010708;28;20406;-87
2022/08/30 02:14:50;;;;;;;4.85;2.08;;;;;;;;;;5017818;28;20041;-87
2022/08/30 02:17:18;;;;;;;5.05;2.70;;;;;;;;;;5012616;28;20489;-87
2022/08/30 02:19:44;;;;;;;6.30;2.78;;;;;;;;;;5018590;28;20243;-87
2022/08/30 02:22:11;;;;;;;5.22;2.50;;;;;;;;;;5010683;28;20139;-88
2022/08/30 02:24:37;;;;;;;3.00;2.22;;;;;;;;;;5005273;28;20081;-87
2022/08/30 02:27:03;;;;;;;3.47;2.30;;;;;;;;;;5051188;28;20089;-87
2022/08/30 02:29:29;;;;;;;5.22;2.60;;;;;;;;;;4995856;28;20489;-87
2022/08/30 02:31:56;;;;;;;3.95;2.22;;;;;;;;;;5016173;28;20449;-87
2022/08/30 02:34:22;;;;;;;3.35;1.70;;;;;;;;;;5028385;28;20556;-87
2022/08/30 02:36:48;;;;;;;4.40;2.22;;;;;;;;;;5023809;28;20044;-87
2022/08/30 02:39:14;;;;;;;3.60;2.20;;;;;;;;;;5013874;28;20040;-87
2022/08/30 02:41:41;;;;;;;4.85;2.33;;;;;;;;;;5016242;28;20443;-87
2022/08/30 02:44:07;;;;;;;5.35;2.40;;;;;;;;;;5029985;28;20079;-87
2022/08/30 02:46:34;;;;;;;5.03;2.58;;;;;;;;;;5016585;28;20081;-87
2022/08/30 02:49:00;;;;;;;5.18;2.22;;;;;;;;;;5027389;28;20051;-88
2022/08/30 02:51:26;;;;;;;6.13;2.00;;;;;;;;;;4999397;28;20037;-88
2022/08/30 02:53:52;;;;;;;3.22;1.90;;;;;;;;;;5049072;28;20128;-88
2022/08/30 02:56:18;;;;;;;3.67;2.15;;;;;;;;;;5027661;28;20037;-88
2022/08/30 02:58:45;;;;;;;3.90;2.50;;;;;;;;;;5011678;28;20041;-87
2022/08/30 03:01:12;;;;;;;4.10;1.80;;;;;;;;;;5011660;28;20620;-87
2022/08/30 03:03:38;;;;;;;3.22;2.10;;;;;;;;;;5035626;28;20048;-87
2022/08/30 03:06:05;;;;;;;2.75;1.77;;;;;;;;;;5028756;28;20110;-87
2022/08/30 03:08:31;;;;;;;3.92;2.38;;;;;;;;;;5017016;28;20056;-87
2022/08/30 03:10:58;;;;;;;3.40;2.05;;;;;;;;;;5028055;28;20040;-86
2022/08/30 03:13:24;;;;;;;4.32;2.05;;;;;;;;;;5018557;28;20120;-87
2022/08/30 03:15:50;;;;;;;2.53;1.50;;;;;;;;;;5054058;28;20104;-87
2022/08/30 03:18:17;;;;;;;4.93;1.98;;;;;;;;;;5011518;28;20047;-87
2022/08/30 03:20:43;;;;;;;2.70;1.63;;;;;;;;;;5015746;28;20045;-87
2022/08/30 03:23:10;;;;;;;5.53;2.25;;;;;;;;;;4998797;28;20053;-87
2022/08/30 03:25:39;;;;;;;3.85;1.80;;;;;;;;;;5043912;28;20114;-88
2022/08/30 03:28:06;;;;;;;7.80;2.10;;;;;;;;;;5011738;28;20084;-87
2022/08/30 03:30:32;;;;;;;5.50;2.03;;;;;;;;;;4983308;28;20072;-87
2022/08/30 03:32:59;;;;;;;2.65;1.70;;;;;;;;;;5023036;28;20470;-87
2022/08/30 03:35:25;;;;;;;3.33;1.80;;;;;;;;;;5051356;28;20045;-87
2022/08/30 03:37:52;;;;;;;3.08;1.77;;;;;;;;;;5004077;28;20397;-87
2022/08/30 03:40:19;;;;;;;3.97;2.22;;;;;;;;;;5018961;28;20037;-87
2022/08/30 03:42:46;;;;;;;3.60;2.30;;;;;;;;;;5043503;28;20577;-87
2022/08/30 03:45:13;;;;;;;4.38;1.90;;;;;;;;;;5029369;28;20570;-87
2022/08/30 03:47:39;;;;;;;3.72;1.70;;;;;;;;;;5015016;28;20044;-87
2022/08/30 03:50:06;;;;;;;5.15;1.80;;;;;;;;;;5029047;28;20041;-87
2022/08/30 03:52:32;;;;;;;7.40;2.13;;;;;;;;;;5012216;28;20040;-87
2022/08/30 03:54:59;;;;;;;2.25;1.58;;;;;;;;;;5029561;28;20048;-86
2022/08/30 03:57:26;;;;;;;2.78;1.67;;;;;;;;;;5021287;28;20052;-87
2022/08/30 03:59:52;;;;;;;3.25;2.40;;;;;;;;;;5014408;28;20048;-86
2022/08/30 04:02:19;;;;;;;4.28;2.75;;;;;;;;;;5014515;28;20299;-87
2022/08/30 04:04:46;;;;;;;3.28;2.13;;;;;;;;;;5017362;28;20040;-86
2022/08/30 04:07:12;;;;;;;2.83;2.00;;;;;;;;;;5031490;28;20079;-86
2022/08/30 04:09:38;;;;;;;5.28;2.47;;;;;;;;;;5004973;28;20048;-87
2022/08/30 04:12:04;;;;;;;5.47;2.25;;;;;;;;;;5013814;28;20389;-87
2022/08/30 04:14:30;;;;;;;3.25;1.83;;;;;;;;;;5013001;28;20045;-87
2022/08/30 04:16:56;;;;;;;4.38;2.72;;;;;;;;;;5031014;28;20043;-86
2022/08/30 04:19:23;;;;;;;3.45;2.10;;;;;;;;;;4999356;28;20040;-86
2022/08/30 04:21:49;;;;;;;3.25;2.30;;;;;;;;;;5037810;28;20044;-87
2022/08/30 04:24:15;;;;;;;4.20;2.08;;;;;;;;;;5029521;28;20048;-87
2022/08/30 04:26:41;;;;;;;5.38;2.70;;;;;;;;;;5030756;28;20183;-86
2022/08/30 04:29:10;;;;;;;5.07;2.42;;;;;;;;;;4986146;28;20055;-87
2022/08/30 04:31:36;;;;;;;4.20;2.38;;;;;;;;;;5029864;28;20151;-86
2022/08/30 04:34:02;;;;;;;4.22;2.22;;;;;;;;;;4990707;28;20048;-86
2022/08/30 04:36:29;;;;;;;3.75;2.45;;;;;;;;;;5031956;28;20131;-87
2022/08/30 04:38:55;;;;;;;3.72;2.33;;;;;;;;;;5035911;28;20095;-87
2022/08/30 04:41:23;;;;;;;5.40;3.13;;;;;;;;;;5026738;28;20036;-87
2022/08/30 04:43:49;;;;;;;5.15;2.83;;;;;;;;;;5026151;28;20470;-86
2022/08/30 04:46:16;;;;;;;5.75;2.65;;;;;;;;;;5038319;28;20601;-87
2022/08/30 04:48:43;;;;;;;4.30;2.38;;;;;;;;;;4988552;28;20497;-86
2022/08/30 04:51:12;;;;;;;4.28;3.30;;;;;;;;;;4998373;28;20504;-88
2022/08/30 04:53:39;;;;;;;6.85;3.33;;;;;;;;;;5042259;28;20666;-87
2022/08/30 04:56:09;;;;;;;6.38;3.10;;;;;;;;;;5040526;28;20076;-87
2022/08/30 04:58:36;;;;;;;6.03;3.05;;;;;;;;;;5037702;28;20111;-87
2022/08/30 05:01:02;;;;;;;3.85;2.83;;;;;;;;;;5037006;28;20462;-87
2022/08/30 05:03:28;;;;;;;6.90;3.30;;;;;;;;;;5055639;28;20037;-87
2022/08/30 05:05:54;;;;;;;4.82;2.95;;;;;;;;;;5021648;28;20048;-87
2022/08/30 05:08:21;;;;;;;7.75;4.20;;;;;;;;;;5055508;28;20512;-87
2022/08/30 05:10:50;;;;;;;4.43;2.85;;;;;;;;;;5038445;28;20072;-86
2022/08/30 05:13:18;;;;;;;6.50;3.63;;;;;;;;;;5039394;28;20118;-87
2022/08/30 05:15:44;;;;;;;5.50;3.35;;;;;;;;;;5023747;28;20037;-87
2022/08/30 05:18:11;;;;;;;4.43;3.10;;;;;;;;;;5041270;28;20053;-87
2022/08/30 05:20:37;;;;;;;5.90;3.78;;;;;;;;;;5052845;28;20107;-87
2022/08/30 05:23:04;;;;;;;5.68;3.95;;;;;;;;;;5039806;28;20043;-86
2022/08/30 05:25:32;;;;;;;5.88;3.35;;;;;;;;;;5044443;28;20095;-87
2022/08/30 05:27:58;;;;;;;6.78;3.60;;;;;;;;;;5027225;28;20419;-85
2022/08/30 05:30:26;;;;;;;6.03;3.97;;;;;;;;;;5044525;28;20563;-86
2022/08/30 05:32:52;;;;;;;7.32;3.55;;;;;;;;;;5044871;28;20040;-88
2022/08/30 05:35:19;;;;;;;7.85;3.90;;;;;;;;;;5038126;28;20069;-87
2022/08/30 05:37:45;;;;;;;6.20;3.45;;;;;;;;;;5042075;28;20041;-89
2022/08/30 05:40:13;;;;;;;5.57;4.05;;;;;;;;;;5038837;28;20041;-91
2022/08/30 05:42:40;;;;;;;4.82;3.83;;;;;;;;;;5030086;28;20485;-88
2022/08/30 05:45:06;;;;;;;6.10;4.45;;;;;;;;;;5048630;28;20049;-88
2022/08/30 05:47:32;;;;;;;9.50;4.60;;;;;;;;;;5029589;28;20045;-89
2022/08/30 05:49:59;;;;;;;9.25;4.57;;;;;;;;;;5022071;28;20134;-89
2022/08/30 05:52:26;;;;;;;6.00;4.07;;;;;;;;;;5011066;28;20080;-87
2022/08/30 05:54:54;;;;;;;4.93;4.38;;;;;;;;;;5025027;28;20098;-88
2022/08/30 05:57:20;;;;;;;6.80;4.57;;;;;;;;;;5025703;28;20048;-87
2022/08/30 05:59:47;;;;;;;6.38;5.13;;;;;;;;;;5030188;28;20042;-88
2022/08/30 06:02:13;;;;;;;7.25;4.53;;;;;;;;;;5015186;28;20046;-89
2022/08/30 06:04:39;;;;;;;7.63;5.10;;;;;;;;;;5025570;28;20040;-88
2022/08/30 06:07:05;;;;;;;10.27;4.18;;;;;;;;;;5020134;28;20124;-84
2022/08/30 06:09:31;;;;;;;6.75;4.60;;;;;;;;;;5012160;28;20046;-87
2022/08/30 06:11:58;;;;;;;6.32;4.10;;;;;;;;;;5011084;28;20041;-89
2022/08/30 06:14:24;;;;;;;4.97;3.33;;;;;;;;;;5032881;28;20049;-88
2022/08/30 06:16:50;;;;;;;6.82;4.13;;;;;;;;;;5030449;28;20048;-89
2022/08/30 06:19:17;;;;;;;5.63;3.40;;;;;;;;;;5011594;28;20175;-85
2022/08/30 06:21:46;;;;;;;4.68;3.47;;;;;;;;;;5022920;28;20110;-85
2022/08/30 06:24:13;;;;;;;7.25;3.28;;;;;;;;;;5036999;28;20048;-88
2022/08/30 06:26:40;;;;;;;5.00;3.95;;;;;;;;;;5016564;28;20748;-88
2022/08/30 06:29:07;;;;;;;5.20;3.67;;;;;;;;;;5040662;28;20132;-88
2022/08/30 06:31:34;;;;;;;9.05;4.80;;;;;;;;;;5041578;28;20056;-84
2022/08/30 06:34:00;;;;;;;7.32;3.47;;;;;;;;;;5011425;28;20041;-85
2022/08/30 06:36:26;;;;;;;5.47;3.88;;;;;;;;;;5026063;28;20505;-85
2022/08/30 06:38:53;;;;;;;6.13;3.75;;;;;;;;;;5024965;28;20037;-85
2022/08/30 06:41:21;;;;;;;7.75;4.07;;;;;;;;;;5045920;28;20095;-85
2022/08/30 06:43:48;;;;;;;6.75;3.70;;;;;;;;;;5046090;28;20049;-85
2022/08/30 06:46:16;;;;;;;7.72;3.50;;;;;;;;;;5026194;28;20369;-85
2022/08/30 06:48:42;;;;;;;5.15;3.38;;;;;;;;;;5026594;28;20045;-85
2022/08/30 06:51:08;;;;;;;8.35;4.78;;;;;;;;;;5021582;28;20037;-85
2022/08/30 06:53:35;;;;;;;6.68;4.18;;;;;;;;;;5026983;28;20056;-85
2022/08/30 06:56:08;;;;;;;6.00;3.30;;;;;;;;;;5016645;28;20035;-85
2022/08/30 06:58:36;;;;;;;5.57;3.10;;;;;;;;;;5022598;28;20343;-85
2022/08/30 07:01:03;;;;;;;7.88;3.42;;;;;;;;;;5049205;28;20041;-85
2022/08/30 07:03:29;;;;;;;6.70;3.53;;;;;;;;;;5055531;28;20076;-85
2022/08/30 07:05:56;;;;;;;4.97;3.17;;;;;;;;;;5005960;28;20337;-85
2022/08/30 07:08:23;;;;;;;4.10;2.90;;;;;;;;;;5021788;28;20389;-85
2022/08/30 07:10:49;;;;;;;5.75;2.58;;;;;;;;;;5007278;28;20072;-85
2022/08/30 07:13:16;;;;;;;5.05;3.55;;;;;;;;;;5022269;28;20052;-85
2022/08/30 07:15:43;;;;;;;10.30;3.17;;;;;;;;;;5017066;28;20052;-85
2022/08/30 07:20:55;;;;;;;3.83;2.45;;;;;;;;;;5047065;28;20056;-85
2022/08/30 07:23:21;;;;;;;5.53;2.72;;;;;;;;;;5004824;28;20030;-85
2022/08/30 07:25:47;;;;;;;5.57;2.47;;;;;;;;;;5012216;28;20120;-85
2022/08/30 07:28:13;;;;;;;7.15;2.78;;;;;;;;;;5019022;28;20462;-85
2022/08/30 07:30:40;;;;;;;5.72;2.55;;;;;;;;;;5027603;28;20163;-85
2022/08/30 07:33:07;;;;;;;4.07;2.47;;;;;;;;;;5026889;28;20435;-85
2022/08/30 07:35:33;;;;;;;4.53;2.65;;;;;;;;;;5024057;28;20048;-85
2022/08/30 07:37:59;;;;;;;3.83;2.67;;;;;;;;;;5020227;28;20063;-85
2022/08/30 07:40:26;;;;;;;3.80;2.35;;;;;;;;;;5011921;28;20270;-85
2022/08/30 07:42:52;;;;;;;7.68;2.53;;;;;;;;;;5019177;28;20041;-85
2022/08/30 07:45:18;;;;;;;4.85;3.40;;;;;;;;;;5025063;28;20060;-85
2022/08/30 07:47:45;;;;;;;6.53;2.72;;;;;;;;;;5019243;28;20033;-85
2022/08/30 07:50:11;;;;;;;5.20;2.40;;;;;;;;;;5037956;28;20139;-85
2022/08/30 07:52:37;;;;;;;5.13;1.77;;;;;;;;;;5010318;28;20521;-85
2022/08/30 07:55:05;;;;;;;3.80;1.83;;;;;;;;;;5012339;28;20129;-85
2022/08/30 07:57:33;;;;;;;3.38;1.92;;;;;;;;;;5027490;28;20124;-85
2022/08/30 08:00:00;;;;;;;3.65;2.40;;;;;;;;;;5051485;28;20041;-85
2022/08/30 08:02:26;;;;;;;4.88;2.25;;;;;;;;;;5010669;28;20471;-85
2022/08/30 08:04:52;;;;;;;3.50;1.85;;;;;;;;;;5025678;28;20039;-85
2022/08/30 08:07:19;;;;;;;3.75;1.75;;;;;;;;;;5013995;28;20048;-85
2022/08/30 08:09:45;;;;;;;5.45;2.20;;;;;;;;;;5027336;28;20287;-85
2022/08/30 08:12:11;;;;;;;3.85;1.92;;;;;;;;;;5024778;28;20077;-85
2022/08/30 08:14:39;;;;;;;3.08;1.80;;;;;;;;;;5016203;28;20049;-85
2022/08/30 08:17:05;;;;;;;8.38;1.80;;;;;;;;;;5034865;28;20076;-85
2022/08/30 08:19:31;;;;;;;5.90;1.90;;;;;;;;;;5048414;28;20130;-85
2022/08/30 08:21:59;;;;;;;3.15;1.80;;;;;;;;;;5018333;28;20036;-85
2022/08/30 08:24:28;;;;;;;3.70;1.63;;;;;;;;;;5008832;28;20095;-85
2022/08/30 08:26:55;;;;;;;5.70;1.85;;;;;;;;;;5036243;28;20081;-85
2022/08/30 08:29:22;;;;;;;4.95;1.77;;;;;;;;;;5052696;28;20037;-85
2022/08/30 08:31:48;;;;;;;7.97;2.05;;;;;;;;;;5017088;28;20458;-85
2022/08/30 08:34:14;;;;;;;5.53;2.75;;;;;;;;;;5029038;28;20040;-85
2022/08/30 08:36:40;;;;;;;4.63;2.05;;;;;;;;;;5020471;28;20137;-85
2022/08/30 08:39:08;;;;;;;3.70;1.60;;;;;;;;;;5012536;28;20040;-85
2022/08/30 08:41:43;;;;;;;3.10;2.00;;;;;;;;;;5053415;28;20401;-85
2022/08/30 08:44:25;;;;;;;4.15;1.67;;;;;;;;;;5034712;28;20451;-85
2022/08/30 08:47:03;;;;;;;5.47;2.23;;;;;;;;;;5045604;28;20052;-85
2022/08/30 08:49:29;;;;;;;3.63;1.63;;;;;;;;;;5041539;28;20110;-85
2022/08/30 08:55:01;;;;;;;4.97;1.92;;;;;;;;;;4986345;28;20076;-85
2022/08/30 08:57:33;;;;;;;2.35;1.35;;;;;;;;;;5026187;28;20052;-85
2022/08/30 08:59:59;;;;;;;2.83;1.50;;;;;;;;;;5032087;28;20051;-85
2022/08/30 09:02:35;;;;;;;2.60;1.50;;;;;;;;;;5039630;28;20477;-85
2022/08/30 09:05:02;;;;;;;5.10;2.15;;;;;;;;;;5025677;28;20398;-85
2022/08/30 09:07:36;;;;;;;4.40;1.50;;;;;;;;;;5030113;28;20113;-85
2022/08/30 09:10:03;;;;;;;4.22;1.42;;;;;;;;;;5017587;28;20132;-85
2022/08/30 09:12:29;;;;;;;4.18;1.75;;;;;;;;;;5030722;28;20064;-85
2022/08/30 09:15:00;;;;;;;2.65;1.40;;;;;;;;;;5028678;28;20075;-85
2022/08/30 09:17:27;;;;;;;4.07;1.75;;;;;;;;;;5014591;28;20136;-85
2022/08/30 09:19:53;;;;;;;3.95;1.67;;;;;;;;;;5035013;28;20449;-85
2022/08/30 09:22:25;;;;;;;2.47;1.45;;;;;;;;;;5017521;28;20136;-85
2022/08/30 09:24:55;;;;;;;3.13;1.50;;;;;;;;;;5023016;28;20043;-85
2022/08/30 09:27:21;;;;;;;3.50;1.50;;;;;;;;;;5055958;28;20120;-85
2022/08/30 09:29:55;;;;;;;3.83;1.40;;;;;;;;;;5035083;28;20090;-85
2022/08/30 09:32:32;;;;;;;4.50;1.48;;;;;;;;;;5017585;28;20033;-85
2022/08/30 09:34:58;;;;;;;2.80;1.20;;;;;;;;;;5059241;28;20098;-85
2022/08/30 09:37:30;;;;;;;2.92;1.35;;;;;;;;;;5014715;28;20044;-85
2022/08/30 09:39:56;;;;;;;2.20;1.23;;;;;;;;;;5040481;28;20040;-85
2022/08/30 09:42:27;;;;;;;2.83;1.65;;;;;;;;;;5027813;28;21165;-85
2022/08/30 09:45:09;;;;;;;5.03;1.45;;;;;;;;;;5045677;28;20060;-85
2022/08/30 09:47:35;;;;;;;3.28;1.70;;;;;;;;;;5045482;28;20059;-85
2022/08/30 09:50:05;;;;;;;4.40;1.23;;;;;;;;;;4998042;28;20119;-85
2022/08/30 09:52:39;;;;;;;3.63;1.25;;;;;;;;;;5014381;28;20045;-85
2022/08/30 09:55:14;;;;;;;1.88;1.23;;;;;;;;;;5044074;28;20052;-85
2022/08/30 09:57:59;;;;;;;2.40;1.00;;;;;;;;;;5027231;28;20113;-85
2022/08/30 10:00:27;;;;;;;3.90;1.17;;;;;;;;;;5032958;28;20052;-85
2022/08/30 10:03:12;;;;;;;2.90;1.60;;;;;;;;;;5026419;28;20622;-85
2022/08/30 10:05:57;;;;;;;2.90;1.10;;;;;;;;;;5020791;28;20101;-85
2022/08/30 10:08:23;;;;;;;3.65;1.27;;;;;;;;;;5030131;28;20453;-85
2022/08/30 10:10:50;;;;;;;2.67;1.33;;;;;;;;;;5010766;28;20038;-85
2022/08/30 10:13:31;;;;;;;2.28;1.20;;;;;;;;;;5052516;28;20107;-85
2022/08/30 10:16:12;;;;;;;2.28;1.25;;;;;;;;;;5032581;28;20045;-85
2022/08/30 10:18:51;;;;;;;2.67;1.20;;;;;;;;;;5051414;28;20339;-85
2022/08/30 10:21:24;;;;;;;6.05;1.58;;;;;;;;;;5027561;28;20478;-85
2022/08/30 10:23:56;;;;;;;2.72;1.27;;;;;;;;;;5027140;28;20399;-86
2022/08/30 10:26:25;;;;;;;2.40;1.10;;;;;;;;;;5022415;28;20041;-85
2022/08/30 10:29:08;;;;;;;4.07;1.45;;;;;;;;;;5050990;28;20109;-85
2022/08/30 10:31:41;;;;;;;3.22;1.20;;;;;;;;;;5033472;28;20178;-85
2022/08/30 10:34:17;;;;;;;4.18;1.45;;;;;;;;;;5017388;28;20082;-85
2022/08/30 10:36:46;;;;;;;3.05;1.30;;;;;;;;;;5010673;28;20037;-86
2022/08/30 10:39:21;;;;;;;2.72;1.17;;;;;;;;;;5051642;28;20497;-85
2022/08/30 10:42:14;;;;;;;2.03;1.20;;;;;;;;;;5026425;28;20445;-86
2022/08/30 10:44:46;;;;;;;6.60;1.55;;;;;;;;;;5002031;28;20078;-85
2022/08/30 10:47:18;;;;;;;2.60;1.58;;;;;;;;;;5026255;28;20049;-85
2022/08/30 10:49:45;;;;;;;3.65;1.17;;;;;;;;;;5028209;28;20620;-85
2022/08/30 10:52:11;;;;;;;3.45;1.20;;;;;;;;;;5015352;28;20053;-85
2022/08/30 10:54:57;;;;;;;1.83;0.88;;;;;;;;;;5017619;28;20606;-85
2022/08/30 10:57:23;;;;;;;4.65;1.40;;;;;;;;;;5023232;28;20052;-85
2022/08/30 10:59:53;;;;;;;4.03;1.00;;;;;;;;;;5003246;28;20552;-85
2022/08/30 11:02:28;;;;;;;2.00;0.90;;;;;;;;;;5015586;28;20095;-85
2022/08/30 11:04:58;;;;;;;1.30;0.80;;;;;;;;;;5026872;28;20052;-85
2022/08/30 11:07:30;;;;;;;2.97;1.58;;;;;;;;;;5034133;28;20056;-85
2022/08/30 11:10:06;;;;;;;2.20;1.25;;;;;;;;;;5019039;28;20486;-85
2022/08/30 11:12:52;;;;;;;2.85;0.98;;;;;;;;;;5036867;28;20473;-83
2022/08/30 11:15:20;;;;;;;2.10;1.10;;;;;;;;;;5026092;28;20045;-85
2022/08/30 11:18:05;;;;;;;1.75;0.98;;;;;;;;;;5017553;28;20044;-85
2022/08/30 11:20:42;;;;;;;2.83;1.15;;;;;;;;;;5026794;28;20125;-85
2022/08/30 11:23:11;;;;;;;3.50;1.80;;;;;;;;;;5033045;28;20037;-86
2022/08/30 11:25:46;;;;;;;2.45;0.85;;;;;;;;;;5011182;28;20538;-85
2022/08/30 11:28:33;;;;;;;2.33;1.30;;;;;;;;;;5011496;28;20124;-86
2022/08/30 11:31:27;;;;;;;2.50;1.35;;;;;;;;;;5001505;28;20359;-86
2022/08/30 11:33:58;;;;;;;3.88;1.42;;;;;;;;;;5026187;28;20044;-85
2022/08/30 11:36:31;;;;;;;2.42;0.90;;;;;;;;;;5022493;28;20103;-85
2022/08/30 11:39:00;;;;;;;4.10;1.35;;;;;;;;;;5010892;28;20352;-85
2022/08/30 11:41:35;;;;;;;2.80;1.27;;;;;;;;;;5042356;28;20094;-86
2022/08/30 11:44:23;;;;;;;2.50;1.60;;;;;;;;;;5012589;28;20057;-85
2022/08/30 11:46:52;;;;;;;1.48;0.98;;;;;;;;;;5017980;28;20107;-86
2022/08/30 11:49:18;;;;;;;1.35;0.80;;;;;;;;;;5021574;28;20103;-85
2022/08/30 11:52:03;;;;;;;10.07;2.17;;;;;;;;;;5008993;28;20045;-85
2022/08/30 11:54:48;;;;;;;4.43;1.13;;;;;;;;;;5024151;28;20045;-86
2022/08/30 11:57:27;;;;;;;3.10;1.05;;;;;;;;;;5016076;28;20041;-85
2022/08/30 12:00:25;;;;;;;1.63;0.88;;;;;;;;;;5011364;28;20051;-85
2022/08/30 12:02:59;;;;;;;3.33;1.02;;;;;;;;;;5027703;28;20482;-85
2022/08/30 12:05:38;;;;;;;4.32;1.00;;;;;;;;;;5025822;28;20455;-85
2022/08/30 12:08:22;;;;;;;3.67;1.25;;;;;;;;;;5025373;28;20339;-85
2022/08/30 12:11:14;;;;;;;7.05;1.42;;;;;;;;;;5025289;28;20068;-86
2022/08/30 12:13:43;;;;;;;1.85;1.20;;;;;;;;;;5021475;28;20049;-85
2022/08/30 12:16:23;;;;;;;2.78;1.63;;;;;;;;;;5008935;28;20041;-85
2022/08/30 12:19:09;;;;;;;1.67;1.08;;;;;;;;;;5028027;28;20048;-85
2022/08/30 12:21:36;;;;;;;5.38;1.10;;;;;;;;;;5024653;28;20034;-85
2022/08/30 12:24:02;;;;;;;5.22;1.33;;;;;;;;;;5050581;28;20038;-85
2022/08/30 12:26:30;;;;;;;6.47;1.30;;;;;;;;;;5027458;28;20080;-85
2022/08/30 12:29:08;;;;;;;2.95;1.10;;;;;;;;;;5022909;28;20045;-85
2022/08/30 12:31:39;;;;;;;3.25;1.15;;;;;;;;;;5025162;28;20060;-85
2022/08/30 12:34:06;;;;;;;4.20;1.05;;;;;;;;;;5052090;28;20053;-85
2022/08/30 12:36:51;;;;;;;2.22;1.15;;;;;;;;;;5017570;28;20124;-85
2022/08/30 12:39:19;;;;;;;2.88;1.30;;;;;;;;;;5036459;28;20136;-85
2022/08/30 12:41:45;;;;;;;4.63;1.90;;;;;;;;;;5009426;28;20476;-85
2022/08/30 12:44:16;;;;;;;3.17;0.98;;;;;;;;;;5025789;28;20490;-85
2022/08/30 12:46:44;;;;;;;3.97;1.50;;;;;;;;;;5026429;28;20057;-85
2022/08/30 12:49:13;;;;;;;3.13;1.17;;;;;;;;;;5016007;28;20041;-85
2022/08/30 12:51:40;;;;;;;2.33;1.05;;;;;;;;;;5024388;28;20616;-86
2022/08/30 12:54:12;;;;;;;3.42;1.20;;;;;;;;;;5025129;28;20041;-85
2022/08/30 12:56:46;;;;;;;4.57;1.13;;;;;;;;;;5030135;28;20045;-86
2022/08/30 12:59:32;;;;;;;2.83;1.05;;;;;;;;;;5021691;28;20370;-85
2022/08/30 13:02:06;;;;;;;1.83;1.10;;;;;;;;;;5037743;28;20132;-85
2022/08/30 13:04:32;;;;;;;3.65;1.40;;;;;;;;;;5011667;28;20052;-86
2022/08/30 13:06:59;;;;;;;4.10;1.50;;;;;;;;;;5004077;28;20056;-86
2022/08/30 13:09:28;;;;;;;1.65;1.30;;;;;;;;;;5049229;28;20076;-85
2022/08/30 13:11:55;;;;;;;1.83;0.98;;;;;;;;;;5055512;28;20430;-85
2022/08/30 13:14:30;;;;;;;2.92;1.08;;;;;;;;;;5029103;28;20040;-86
2022/08/30 13:17:28;;;;;;;2.05;1.20;;;;;;;;;;5029263;28;20259;-86
2022/08/30 13:19:58;;;;;;;2.47;1.75;;;;;;;;;;5007572;28;20052;-85
2022/08/30 13:22:26;;;;;;;4.05;1.50;;;;;;;;;;5018553;28;20041;-85
2022/08/30 13:24:52;;;;;;;4.75;1.67;;;;;;;;;;5011263;28;20065;-85
2022/08/30 13:27:19;;;;;;;5.13;1.73;;;;;;;;;;5018981;28;20049;-85
2022/08/30 13:29:45;;;;;;;2.90;1.15;;;;;;;;;;5018807;28;20041;-85
2022/08/30 13:32:12;;;;;;;3.28;1.42;;;;;;;;;;5019825;28;20083;-85
2022/08/30 13:34:39;;;;;;;4.80;1.55;;;;;;;;;;5023799;28;20056;-85
2022/08/30 13:37:09;;;;;;;1.67;1.00;;;;;;;;;;5014076;28;20402;-85
2022/08/30 13:39:35;;;;;;;2.90;1.20;;;;;;;;;;5035869;28;20118;-85
2022/08/30 13:42:01;;;;;;;3.75;1.60;;;;;;;;;;5028284;28;20030;-85
2022/08/30 13:44:27;;;;;;;2.38;1.63;;;;;;;;;;5017995;28;20160;-85
2022/08/30 13:46:55;;;;;;;2.75;1.60;;;;;;;;;;5027695;28;20270;-85
2022/08/30 13:49:26;;;;;;;1.88;0.82;;;;;;;;;;5023891;28;20124;-85
2022/08/30 13:51:52;;;;;;;3.20;1.15;;;;;;;;;;5028483;28;20079;-85
2022/08/30 13:54:22;;;;;;;8.00;1.30;;;;;;;;;;5020788;28;20518;-85
2022/08/30 13:56:49;;;;;;;3.28;1.30;;;;;;;;;;5053914;28;20049;-85
2022/08/30 13:59:16;;;;;;;3.83;0.90;;;;;;;;;;5052045;28;20045;-85
2022/08/30 14:01:42;;;;;;;3.60;1.10;;;;;;;;;;5030316;28;20512;-85
2022/08/30 14:04:08;;;;;;;3.08;1.20;;;;;;;;;;5028608;28;20439;-85
2022/08/30 14:06:35;;;;;;;2.38;1.30;;;;;;;;;;5012187;28;20041;-85
2022/08/30 14:09:02;;;;;;;4.07;1.20;;;;;;;;;;5012156;28;20544;-85
2022/08/30 14:11:28;;;;;;;3.30;1.25;;;;;;;;;;5030107;28;20095;-85
2022/08/30 14:13:54;;;;;;;5.07;1.25;;;;;;;;;;5003518;28;20129;-85
2022/08/30 14:16:20;;;;;;;4.53;1.65;;;;;;;;;;5016039;28;20068;-85
2022/08/30 14:18:47;;;;;;;3.08;1.40;;;;;;;;;;5002767;28;20042;-85
2022/08/30 14:21:13;;;;;;;1.98;1.30;;;;;;;;;;5013133;28;20041;-85
2022/08/30 14:23:39;;;;;;;1.80;1.10;;;;;;;;;;5026240;28;20077;-85
2022/08/30 14:26:10;;;;;;;1.63;1.02;;;;;;;;;;5023088;28;20048;-85
2022/08/30 14:28:36;;;;;;;2.15;1.17;;;;;;;;;;5025907;28;20046;-85
2022/08/30 14:31:03;;;;;;;4.18;1.20;;;;;;;;;;5029724;28;20071;-85
2022/08/30 14:33:29;;;;;;;2.50;1.17;;;;;;;;;;5011300;28;20044;-85
2022/08/30 14:35:55;;;;;;;1.92;0.98;;;;;;;;;;5015845;28;20044;-85
2022/08/30 14:38:21;;;;;;;3.72;1.30;;;;;;;;;;5028658;28;20048;-85
2022/08/30 14:40:47;;;;;;;3.83;1.35;;;;;;;;;;5028808;28;20067;-85
2022/08/30 14:43:13;;;;;;;1.77;1.08;;;;;;;;;;5030049;28;20073;-85
2022/08/30 14:45:40;;;;;;;1.48;0.90;;;;;;;;;;5010882;28;20057;-85
2022/08/30 14:48:08;;;;;;;4.00;1.23;;;;;;;;;;5024210;28;20044;-85
2022/08/30 14:50:35;;;;;;;2.47;0.90;;;;;;;;;;5023620;28;20463;-85
2022/08/30 14:53:01;;;;;;;1.70;1.00;;;;;;;;;;5028101;28;20367;-85
2022/08/30 14:55:28;;;;;;;3.25;1.25;;;;;;;;;;5027025;28;20128;-85
2022/08/30 14:57:55;;;;;;;5.63;1.27;;;;;;;;;;5034828;28;20592;-85
2022/08/30 15:00:22;;;;;;;2.30;1.20;;;;;;;;;;5019347;28;20571;-85